Krupp, Washington
Current Conditions -  °F | °C
As of 1:52 AM on Thursday 23 Oct 2014 (Local Time) from KMWH Reporting Station
Broken Clouds Broken Clouds  
Wind Chill: 57°   Ceiling: 10000
Heat Index: 57°   Visibility: 10mi
Dew Point: 48°   Wind: 12mph
Humidity: 72%   Direction: 200°SSW
Pressure: 29.72"   Gusts: NA
Location:  47.3463°N, 119.014°W
Report Text: KMWH 230852Z AUTO 20010KT 10SM BKN100 14/09 A2972 RMK AO2 SLP065 60001 T01390089 53016 TSNO
Loading
Personal Weather Stations






























Interactive Weather Map
Tropical Storm Tracking
New forecast layout! Learn more

10-Day Weather Forecast

Advertisements
Track Severe Weather on mobile